Time;durP1;ratioP1;P1;durP2;ratioP2;P2;SDS_P1;SDS_P2;PMS_P1;PMS_P2;Temp;Humidity;BMP_temperature;BMP_pressure;BME280_temperature;BME280_humidity;BME280_pressure;Samples;Min_cycle;Max_cycle;Signal;HPM_P1;HPM_P2
2021/05/04 00:00:14;;;;;;;9.37;5.70;;;7.60;83.10;;;;;;5081162;28;20977;-83
2021/05/04 00:02:40;;;;;;;17.57;6.53;;;7.60;83.10;;;;;;5081410;28;20505;-83
2021/05/04 00:05:06;;;;;;;9.00;4.53;;;7.60;83.10;;;;;;5080822;28;20579;-83
2021/05/04 00:07:32;;;;;;;9.85;5.75;;;7.50;83.50;;;;;;5074028;28;20551;-85
2021/05/04 00:09:58;;;;;;;13.60;6.70;;;7.50;83.80;;;;;;5073524;28;20172;-85
2021/05/04 00:12:23;;;;;;;11.83;5.27;;;7.50;84.10;;;;;;5074593;28;20202;-85
2021/05/04 00:14:51;;;;;;;10.83;6.17;;;7.50;84.60;;;;;;5073875;28;20449;-85
2021/05/04 00:17:16;;;;;;;11.43;5.75;;;7.50;84.60;;;;;;5073788;28;20853;-85
2021/05/04 00:19:42;;;;;;;11.37;5.93;;;7.40;84.50;;;;;;5073702;28;20169;-85
2021/05/04 00:22:08;;;;;;;10.30;6.50;;;7.40;85.20;;;;;;5073747;28;20222;-85
2021/05/04 00:24:34;;;;;;;8.00;6.07;;;7.40;84.90;;;;;;5073642;28;20196;-85
2021/05/04 00:26:59;;;;;;;10.80;5.83;;;7.40;85.20;;;;;;5073553;28;20455;-85
2021/05/04 00:29:25;;;;;;;17.37;5.87;;;7.40;84.50;;;;;;5073379;28;20418;-85
2021/05/04 00:31:51;;;;;;;9.77;6.25;;;7.40;84.60;;;;;;5073797;28;20610;-85
2021/05/04 00:34:17;;;;;;;13.77;7.33;;;7.40;84.80;;;;;;5073765;28;20192;-85
2021/05/04 00:36:42;;;;;;;8.07;5.00;;;7.40;84.80;;;;;;5073708;28;20177;-85
2021/05/04 00:39:08;;;;;;;9.07;6.40;;;7.40;85.10;;;;;;5073706;28;20172;-85
2021/05/04 00:41:34;;;;;;;14.20;7.30;;;7.40;84.60;;;;;;5073881;28;20187;-85
2021/05/04 00:44:00;;;;;;;11.80;7.30;;;7.40;84.90;;;;;;5073125;28;20197;-85
2021/05/04 00:46:26;;;;;;;12.80;7.80;;;7.40;85.20;;;;;;5072161;28;20456;-85
2021/05/04 00:48:51;;;;;;;14.03;6.47;;;7.40;85.20;;;;;;5062545;28;20816;-85
2021/05/04 00:51:20;;;;;;;14.10;7.43;;;7.30;85.50;;;;;;5053475;28;20169;-85
2021/05/04 00:53:45;;;;;;;11.18;6.65;;;7.30;85.90;;;;;;5055635;28;20185;-85
2021/05/04 00:56:11;;;;;;;11.47;6.33;;;7.30;85.90;;;;;;5057977;28;20307;-85
2021/05/04 00:58:41;;;;;;;10.40;6.03;;;7.20;86.00;;;;;;5057789;28;20778;-84
2021/05/04 01:01:07;;;;;;;12.82;5.25;;;7.20;86.00;;;;;;5057964;28;20173;-83
2021/05/04 01:03:33;;;;;;;11.07;6.25;;;7.20;85.90;;;;;;5058202;28;20169;-84
2021/05/04 01:05:59;;;;;;;11.73;6.03;;;7.20;86.00;;;;;;5057999;28;20222;-84
2021/05/04 01:08:24;;;;;;;13.23;6.50;;;7.20;86.00;;;;;;5058810;28;20544;-85
2021/05/04 01:10:50;;;;;;;10.70;6.10;;;7.20;85.80;;;;;;5067207;28;20425;-83
2021/05/04 01:13:16;;;;;;;8.77;5.63;;;7.20;85.60;;;;;;5070482;28;20176;-84
2021/05/04 01:15:42;;;;;;;6.22;4.40;;;7.20;85.60;;;;;;5068786;28;20434;-83
2021/05/04 01:18:08;;;;;;;7.32;4.55;;;7.20;85.20;;;;;;5078268;28;20268;-84
2021/05/04 01:20:36;;;;;;;10.63;4.70;;;7.20;85.50;;;;;;5078311;28;20643;-84
2021/05/04 01:23:03;;;;;;;8.23;5.20;;;7.20;85.20;;;;;;5078519;28;20421;-84
2021/05/04 01:25:29;;;;;;;7.38;4.45;;;7.20;85.50;;;;;;5078777;28;20189;-83
2021/05/04 01:27:54;;;;;;;8.17;4.90;;;7.20;85.10;;;;;;5077564;28;20224;-85
2021/05/04 01:30:21;;;;;;;8.63;5.20;;;7.30;84.90;;;;;;5078205;28;20417;-84
2021/05/04 01:32:46;;;;;;;10.90;5.93;;;7.20;85.50;;;;;;5077485;28;20179;-85
2021/05/04 01:35:13;;;;;;;14.23;6.77;;;7.20;85.90;;;;;;5078170;28;20224;-84
2021/05/04 01:37:38;;;;;;;11.57;5.82;;;7.10;86.30;;;;;;5078497;28;20422;-85
2021/05/04 01:40:06;;;;;;;17.77;7.72;;;7.20;86.30;;;;;;5078321;28;20173;-85
2021/05/04 01:42:31;;;;;;;15.98;7.28;;;7.10;86.40;;;;;;5077845;28;20176;-85
2021/05/04 01:44:57;;;;;;;15.50;7.63;;;7.10;86.70;;;;;;5077842;28;20561;-85
2021/05/04 01:47:23;;;;;;;15.40;7.10;;;7.10;87.10;;;;;;5077346;28;20481;-85
2021/05/04 01:49:49;;;;;;;15.90;7.63;;;7.00;88.00;;;;;;5077598;28;20421;-85
2021/05/04 01:52:14;;;;;;;13.47;7.63;;;7.00;88.30;;;;;;5077591;28;20222;-85
2021/05/04 01:54:40;;;;;;;12.77;8.13;;;6.90;88.40;;;;;;5077433;28;20423;-85
2021/05/04 01:57:06;;;;;;;13.73;6.73;;;6.90;88.40;;;;;;5077976;28;20458;-85
2021/05/04 01:59:32;;;;;;;12.15;6.47;;;6.90;88.30;;;;;;5077378;28;20411;-85
2021/05/04 02:01:58;;;;;;;10.73;6.47;;;6.90;88.50;;;;;;5077438;28;20175;-85
2021/05/04 02:04:25;;;;;;;11.23;7.10;;;6.80;88.50;;;;;;5077139;28;20435;-85
2021/05/04 02:06:54;;;;;;;11.82;6.15;;;6.90;88.80;;;;;;5076506;28;20211;-85
2021/05/04 02:09:20;;;;;;;21.00;6.75;;;6.80;88.80;;;;;;5076385;28;20651;-85
2021/05/04 02:11:46;;;;;;;9.30;5.60;;;6.90;88.90;;;;;;5064077;28;20201;-85
2021/05/04 02:14:11;;;;;;;9.47;5.33;;;6.80;88.70;;;;;;5056382;28;20435;-86
2021/05/04 02:16:37;;;;;;;9.37;4.97;;;6.80;88.70;;;;;;5072081;28;20930;-85
2021/05/04 02:19:04;;;;;;;11.25;6.00;;;6.80;88.30;;;;;;5076967;28;20414;-85
2021/05/04 02:21:30;;;;;;;10.55;5.25;;;6.80;88.10;;;;;;5076750;28;20202;-85
2021/05/04 02:23:55;;;;;;;12.20;6.83;;;6.80;88.30;;;;;;5076587;28;20719;-85
2021/05/04 02:26:21;;;;;;;8.40;4.73;;;6.80;88.40;;;;;;5076416;28;20973;-85
2021/05/04 02:28:48;;;;;;;7.23;4.40;;;6.80;88.40;;;;;;5076632;28;20445;-85
2021/05/04 02:31:14;;;;;;;10.35;5.60;;;6.80;88.10;;;;;;5076822;28;20378;-85
2021/05/04 02:33:41;;;;;;;13.23;5.30;;;6.80;88.00;;;;;;5076261;28;20188;-85
2021/05/04 02:36:08;;;;;;;10.00;5.55;;;6.80;88.00;;;;;;5076574;28;20173;-85
2021/05/04 02:38:34;;;;;;;6.75;4.43;;;6.80;87.40;;;;;;5076168;28;20307;-85
2021/05/04 02:41:01;;;;;;;10.95;5.60;;;6.80;87.60;;;;;;5075979;28;20172;-85
2021/05/04 02:43:27;;;;;;;11.93;4.75;;;6.80;87.30;;;;;;5075765;28;20307;-85
2021/05/04 02:45:53;;;;;;;16.60;5.37;;;6.90;87.00;;;;;;5076360;28;20651;-84
2021/05/04 02:48:19;;;;;;;10.02;5.93;;;6.90;86.40;;;;;;5075313;28;20850;-84
2021/05/04 02:50:46;;;;;;;9.55;5.70;;;6.90;86.70;;;;;;5075563;28;20226;-85
2021/05/04 02:53:12;;;;;;;11.20;5.78;;;6.90;85.90;;;;;;5075705;28;20208;-85
2021/05/04 02:55:38;;;;;;;12.80;5.70;;;6.90;86.00;;;;;;5075332;28;20217;-85
2021/05/04 02:58:04;;;;;;;11.13;5.93;;;6.90;85.90;;;;;;5075860;28;20176;-85
2021/05/04 03:00:30;;;;;;;12.38;5.93;;;7.00;86.20;;;;;;5075338;28;20552;-85
2021/05/04 03:02:56;;;;;;;11.20;5.40;;;7.00;86.00;;;;;;5074671;28;20579;-85
2021/05/04 03:05:21;;;;;;;11.90;5.50;;;7.00;86.00;;;;;;5075542;28;20432;-85
2021/05/04 03:07:47;;;;;;;15.10;5.70;;;7.00;85.50;;;;;;5075535;28;20433;-85
2021/05/04 03:10:13;;;;;;;8.33;5.30;;;7.00;85.50;;;;;;5075509;28;20410;-85
2021/05/04 03:12:39;;;;;;;12.20;5.33;;;7.00;85.20;;;;;;5075679;28;20473;-85
2021/05/04 03:15:06;;;;;;;10.50;5.30;;;7.10;84.40;;;;;;5076700;28;20469;-85
2021/05/04 03:17:32;;;;;;;8.95;5.18;;;7.10;84.60;;;;;;5076422;28;20173;-83
2021/05/04 03:19:58;;;;;;;8.83;5.73;;;7.20;84.40;;;;;;5076643;28;20168;-83
2021/05/04 03:22:23;;;;;;;9.77;5.70;;;7.20;83.80;;;;;;5076486;28;20433;-84
2021/05/04 03:24:49;;;;;;;7.50;5.03;;;7.30;83.90;;;;;;5077665;28;20430;-84
2021/05/04 03:27:16;;;;;;;8.03;4.70;;;7.20;84.80;;;;;;5076070;28;20457;-85
2021/05/04 03:29:42;;;;;;;8.27;5.55;;;7.20;84.80;;;;;;5076179;28;20168;-84
2021/05/04 03:32:08;;;;;;;11.38;5.60;;;7.30;84.80;;;;;;5076166;28;20168;-84
2021/05/04 03:34:33;;;;;;;10.80;4.90;;;7.30;84.20;;;;;;5076409;28;20706;-84
2021/05/04 03:36:59;;;;;;;9.87;5.17;;;7.20;84.10;;;;;;5076488;28;20406;-84
2021/05/04 03:39:25;;;;;;;10.20;5.40;;;7.20;84.80;;;;;;5076383;28;20175;-85
2021/05/04 03:41:51;;;;;;;10.77;5.50;;;7.20;84.60;;;;;;5075936;28;20415;-84
2021/05/04 03:44:17;;;;;;;11.30;6.32;;;7.20;84.60;;;;;;5076389;28;20476;-84
2021/05/04 03:46:43;;;;;;;10.50;5.45;;;7.20;84.60;;;;;;5076036;28;20341;-84
2021/05/04 03:49:10;;;;;;;15.00;6.85;;;7.20;85.10;;;;;;5076058;28;20172;-84
2021/05/04 03:51:37;;;;;;;12.70;6.93;;;7.20;84.90;;;;;;5076460;28;20204;-84
2021/05/04 03:54:03;;;;;;;12.93;5.95;;;7.10;84.90;;;;;;5076179;28;20593;-84
2021/05/04 03:56:29;;;;;;;12.75;6.07;;;7.20;85.30;;;;;;5076044;28;20173;-84
2021/05/04 03:58:55;;;;;;;12.23;6.23;;;7.20;85.30;;;;;;5076328;28;20180;-84
2021/05/04 04:01:21;;;;;;;9.93;5.75;;;7.20;85.20;;;;;;5078277;28;20480;-84
2021/05/04 04:03:50;;;;;;;12.33;5.80;;;7.20;84.90;;;;;;5077399;28;20277;-84
2021/05/04 04:06:17;;;;;;;14.38;6.70;;;7.20;84.90;;;;;;5078676;28;20835;-84
2021/05/04 04:08:45;;;;;;;14.35;6.68;;;7.20;85.30;;;;;;5077753;28;20165;-84
2021/05/04 04:11:11;;;;;;;13.50;6.22;;;7.20;85.60;;;;;;5077053;28;20180;-84
2021/05/04 04:13:36;;;;;;;11.00;6.33;;;7.20;85.50;;;;;;5077818;28;20243;-83
2021/05/04 04:16:02;;;;;;;10.33;6.10;;;7.20;85.50;;;;;;5077892;28;20411;-84
2021/05/04 04:18:28;;;;;;;11.00;6.80;;;7.20;85.90;;;;;;5077837;28;20410;-85
2021/05/04 04:20:54;;;;;;;9.53;5.40;;;7.20;86.30;;;;;;5077482;28;20200;-84
2021/05/04 04:23:19;;;;;;;13.77;5.37;;;7.20;85.80;;;;;;5077457;28;20187;-85
2021/05/04 04:25:45;;;;;;;9.90;5.80;;;7.20;85.80;;;;;;5076701;28;20667;-91
2021/05/04 04:28:11;;;;;;;8.70;4.83;;;7.10;86.40;;;;;;5074197;28;20192;-90
2021/05/04 04:30:37;;;;;;;9.57;5.80;;;7.10;85.80;;;;;;5072477;28;20449;-88
2021/05/04 04:33:05;;;;;;;12.33;5.20;;;7.20;85.60;;;;;;5071971;28;20180;-91
2021/05/04 04:35:31;;;;;;;14.77;5.18;;;7.30;85.10;;;;;;5076875;28;20199;-92
2021/05/04 04:37:56;;;;;;;8.38;5.57;;;7.30;84.90;;;;;;5077904;28;20230;-92
2021/05/04 04:40:22;;;;;;;12.33;5.53;;;7.30;85.10;;;;;;5078275;28;20176;-93
2021/05/04 04:42:48;;;;;;;8.37;4.93;;;7.40;84.80;;;;;;5077647;28;20180;-93
2021/05/04 04:45:15;;;;;;;11.02;5.68;;;7.40;84.50;;;;;;5080414;28;20934;-89
2021/05/04 04:47:41;;;;;;;14.90;6.45;;;7.40;85.20;;;;;;5076217;28;20253;-90
2021/05/04 04:50:07;;;;;;;14.30;5.70;;;7.50;84.80;;;;;;5075765;28;20176;-89
2021/05/04 04:52:33;;;;;;;15.15;5.10;;;7.60;84.80;;;;;;5075772;28;20816;-89
2021/05/04 04:54:59;;;;;;;12.63;6.63;;;7.60;83.90;;;;;;5074906;28;20197;-89
2021/05/04 04:57:24;;;;;;;8.80;5.30;;;7.60;84.20;;;;;;5075465;28;20509;-89
2021/05/04 04:59:50;;;;;;;13.50;6.30;;;7.70;84.50;;;;;;5075873;28;20419;-89
2021/05/04 05:02:17;;;;;;;27.73;6.87;;;7.70;84.20;;;;;;5075395;28;20667;-89
2021/05/04 05:04:48;;;;;;;14.43;6.97;;;7.70;84.20;;;;;;5076181;28;20426;-89
2021/05/04 05:07:14;;;;;;;10.27;5.68;;;7.80;83.90;;;;;;5076082;28;20211;-89
2021/05/04 05:09:41;;;;;;;14.18;5.55;;;7.80;83.10;;;;;;5075424;28;20176;-90
2021/05/04 05:12:07;;;;;;;10.23;4.78;;;7.90;83.00;;;;;;5075243;28;20534;-88
2021/05/04 05:14:35;;;;;;;14.48;5.30;;;7.90;83.10;;;;;;5075962;28;20607;-89
2021/05/04 05:17:02;;;;;;;10.80;5.57;;;8.00;82.70;;;;;;5076065;28;20544;-89
2021/05/04 05:19:27;;;;;;;13.63;4.68;;;8.00;82.10;;;;;;5076551;28;20204;-89
2021/05/04 05:21:53;;;;;;;10.77;5.37;;;8.10;81.70;;;;;;5076169;28;20185;-89
2021/05/04 05:24:19;;;;;;;10.47;5.20;;;8.20;82.00;;;;;;5076138;28;20458;-89
2021/05/04 05:26:45;;;;;;;7.70;4.33;;;8.30;81.60;;;;;;5076203;28;20473;-89
2021/05/04 05:29:11;;;;;;;14.52;7.78;;;8.30;81.60;;;;;;5076016;28;20490;-89
2021/05/04 05:31:37;;;;;;;14.98;5.38;;;8.40;81.40;;;;;;5075183;28;20675;-89
2021/05/04 05:34:04;;;;;;;12.70;4.93;;;8.40;81.00;;;;;;5075364;28;20215;-90
2021/05/04 05:36:30;;;;;;;11.43;4.75;;;8.50;80.50;;;;;;5076066;28;20791;-89
2021/05/04 05:38:56;;;;;;;11.43;4.30;;;8.50;81.00;;;;;;5075391;28;20544;-89
2021/05/04 05:41:26;;;;;;;6.95;4.28;;;8.60;80.90;;;;;;5076669;28;20173;-89
2021/05/04 05:43:52;;;;;;;11.90;4.93;;;8.70;80.60;;;;;;5075664;28;20224;-89
2021/05/04 05:46:18;;;;;;;8.88;5.03;;;8.70;80.50;;;;;;5075918;28;20726;-89
2021/05/04 05:48:44;;;;;;;10.15;4.60;;;8.80;79.90;;;;;;5076650;28;20164;-89
2021/05/04 05:51:10;;;;;;;7.03;4.10;;;8.80;80.10;;;;;;5076343;28;20196;-89
2021/05/04 05:53:37;;;;;;;14.23;4.05;;;8.80;79.80;;;;;;5075804;28;20169;-89
2021/05/04 05:56:04;;;;;;;8.70;4.68;;;8.80;80.30;;;;;;5076511;28;20193;-89
2021/05/04 05:58:30;;;;;;;11.48;4.78;;;8.90;79.10;;;;;;5075805;28;20692;-90
2021/05/04 06:00:56;;;;;;;8.50;4.68;;;9.00;78.70;;;;;;5075976;28;20207;-89
2021/05/04 06:03:23;;;;;;;9.02;4.30;;;9.00;78.80;;;;;;5075537;28;20230;-89
2021/05/04 06:05:51;;;;;;;8.85;4.45;;;9.10;78.40;;;;;;5075991;28;20542;-86
2021/05/04 06:08:17;;;;;;;11.68;6.30;;;9.20;78.00;;;;;;5078441;28;20208;-85
2021/05/04 06:10:46;;;;;;;11.43;4.90;;;9.30;79.40;;;;;;5078343;28;20668;-84
2021/05/04 06:13:12;;;;;;;11.88;4.35;;;9.30;77.10;;;;;;5078549;28;20415;-84
2021/05/04 06:15:43;;;;;;;10.00;4.43;;;9.40;77.40;;;;;;5079122;28;20192;-84
2021/05/04 06:18:10;;;;;;;17.02;4.85;;;9.50;77.00;;;;;;5078635;28;20407;-84
2021/05/04 06:20:45;;;;;;;11.30;4.90;;;9.60;77.10;;;;;;5078279;28;20169;-84
2021/05/04 06:23:11;;;;;;;24.30;6.43;;;9.70;77.40;;;;;;5078444;28;20172;-84
2021/05/04 06:25:36;;;;;;;15.33;5.50;;;9.80;76.90;;;;;;5078278;28;20193;-84
2021/05/04 06:28:06;;;;;;;12.93;5.60;;;10.00;77.40;;;;;;5077268;28;20454;-83
2021/05/04 06:30:35;;;;;;;16.88;5.15;;;10.10;75.50;;;;;;5078080;28;20407;-84
2021/05/04 06:33:06;;;;;;;15.13;4.75;;;10.20;74.40;;;;;;5078067;28;20184;-84
2021/05/04 06:35:35;;;;;;;15.50;5.78;;;10.40;74.50;;;;;;5077523;28;20192;-84
2021/05/04 06:38:02;;;;;;;8.60;4.45;;;10.60;71.40;;;;;;5076604;28;20173;-84
2021/05/04 06:40:28;;;;;;;8.82;3.97;;;10.80;72.10;;;;;;5076584;28;20179;-84
2021/05/04 06:42:54;;;;;;;18.90;6.00;;;11.00;69.90;;;;;;5075889;28;20177;-84
2021/05/04 06:45:27;;;;;;;9.50;5.70;;;11.20;70.10;;;;;;5074857;28;20434;-84
2021/05/04 06:47:57;;;;;;;11.18;5.40;;;11.40;68.90;;;;;;5074916;28;20454;-84
2021/05/04 06:50:23;;;;;;;12.93;4.70;;;11.50;68.80;;;;;;5074660;28;20252;-84
2021/05/04 06:52:52;;;;;;;9.52;5.20;;;11.60;68.90;;;;;;5074627;28;20206;-85
2021/05/04 06:55:17;;;;;;;12.85;5.80;;;11.80;68.70;;;;;;5074639;28;20192;-84
2021/05/04 06:57:43;;;;;;;11.03;5.27;;;11.90;68.00;;;;;;5074986;28;20176;-84
2021/05/04 07:00:10;;;;;;;14.73;4.70;;;12.00;66.30;;;;;;5074395;28;20417;-84
2021/05/04 07:02:36;;;;;;;6.70;3.50;;;12.10;66.20;;;;;;5075449;28;20176;-85
2021/05/04 07:05:11;;;;;;;10.80;3.75;;;12.30;65.80;;;;;;5074838;28;20199;-85
2021/05/04 07:07:37;;;;;;;8.30;4.22;;;12.40;64.20;;;;;;5074832;28;20629;-84
2021/05/04 07:10:06;;;;;;;18.47;4.33;;;12.60;63.40;;;;;;5074660;28;20310;-85
2021/05/04 07:12:32;;;;;;;8.02;4.38;;;12.70;62.80;;;;;;5074061;28;20168;-85
2021/05/04 07:14:58;;;;;;;5.53;3.40;;;12.90;63.70;;;;;;5074572;28;20546;-84
2021/05/04 07:17:25;;;;;;;4.20;2.70;;;13.00;62.40;;;;;;5074347;28;20172;-84
2021/05/04 07:19:54;;;;;;;6.90;2.63;;;13.20;61.30;;;;;;5074471;28;20823;-84
2021/05/04 07:22:22;;;;;;;6.35;3.05;;;13.40;59.20;;;;;;5074258;28;20172;-85
2021/05/04 07:24:49;;;;;;;4.13;2.83;;;13.60;59.10;;;;;;5074598;28;20203;-85
2021/05/04 07:27:14;;;;;;;5.45;2.88;;;13.70;57.90;;;;;;5074451;28;20203;-85
2021/05/04 07:29:40;;;;;;;3.30;2.37;;;13.90;56.80;;;;;;5074384;28;20172;-84
2021/05/04 07:32:06;;;;;;;4.40;2.37;;;14.00;55.70;;;;;;5073621;28;20263;-84
2021/05/04 07:34:32;;;;;;;2.93;2.33;;;14.20;56.20;;;;;;5074040;28;20215;-85
2021/05/04 07:36:58;;;;;;;4.70;2.50;;;14.40;55.40;;;;;;5074254;28;21125;-85
2021/05/04 07:39:24;;;;;;;4.53;2.47;;;14.60;55.30;;;;;;5069849;28;20242;-84
2021/05/04 07:41:50;;;;;;;3.88;2.40;;;14.70;55.40;;;;;;5061341;28;20679;-86
2021/05/04 07:44:16;;;;;;;7.57;3.10;;;14.80;53.00;;;;;;5053938;28;20291;-83
2021/05/04 07:46:42;;;;;;;5.50;2.60;;;15.00;54.60;;;;;;5053905;28;20456;-85
2021/05/04 07:49:12;;;;;;;3.03;2.40;;;15.20;54.90;;;;;;5054115;28;20165;-83
2021/05/04 07:51:39;;;;;;;7.53;2.30;;;15.40;52.80;;;;;;5054156;28;20177;-85
2021/05/04 07:54:05;;;;;;;2.78;1.95;;;15.60;50.90;;;;;;5053067;28;20193;-83
2021/05/04 07:56:31;;;;;;;3.03;2.05;;;15.80;51.10;;;;;;5054315;28;20230;-87
2021/05/04 07:58:57;;;;;;;5.83;2.90;;;16.00;50.70;;;;;;5054163;28;20173;-87
2021/05/04 08:01:23;;;;;;;24.03;2.10;;;16.10;50.10;;;;;;5054778;28;20443;-87
2021/05/04 08:03:48;;;;;;;3.27;2.00;;;16.30;48.80;;;;;;5054359;28;20189;-84
2021/05/04 08:06:14;;;;;;;9.17;2.20;;;16.30;49.80;;;;;;5056732;28;20432;-84
2021/05/04 08:08:40;;;;;;;6.20;2.17;;;16.50;47.40;;;;;;5056357;28;20471;-84
2021/05/04 08:11:06;;;;;;;4.90;1.77;;;16.50;48.30;;;;;;5056655;28;20430;-83
2021/05/04 08:13:32;;;;;;;4.73;2.03;;;16.60;47.00;;;;;;5056227;28;20177;-84
2021/05/04 08:15:59;;;;;;;4.40;2.10;;;16.60;46.50;;;;;;5057276;28;20633;-84
2021/05/04 08:18:26;;;;;;;2.63;2.03;;;16.70;47.30;;;;;;5055702;28;20429;-84
2021/05/04 08:20:53;;;;;;;4.82;1.95;;;16.50;46.30;;;;;;5055583;28;20515;-83
2021/05/04 08:23:23;;;;;;;3.63;2.30;;;16.60;46.60;;;;;;5055471;28;20183;-84
2021/05/04 08:25:49;;;;;;;5.57;2.35;;;16.60;46.60;;;;;;5056454;28;20169;-83
2021/05/04 08:28:15;;;;;;;2.87;1.70;;;16.80;46.30;;;;;;5058583;28;20209;-84
2021/05/04 08:30:41;;;;;;;2.83;1.90;;;16.90;46.60;;;;;;5055981;28;20429;-84
2021/05/04 08:33:06;;;;;;;2.40;2.23;;;17.10;45.60;;;;;;5056267;28;20646;-84
2021/05/04 08:35:32;;;;;;;2.60;1.90;;;17.20;45.60;;;;;;5057760;28;20435;-85
2021/05/04 08:37:58;;;;;;;6.73;2.47;;;17.30;45.60;;;;;;5057246;28;20416;-83
2021/05/04 08:40:25;;;;;;;3.58;2.20;;;17.40;44.90;;;;;;5055260;28;20412;-84
2021/05/04 08:42:52;;;;;;;2.00;1.75;;;17.50;44.60;;;;;;5055328;28;20173;-85
2021/05/04 08:45:18;;;;;;;2.25;1.90;;;17.70;43.70;;;;;;5057876;28;20193;-83
2021/05/04 08:47:46;;;;;;;5.95;1.88;;;17.70;43.70;;;;;;5056456;28;20196;-84
2021/05/04 08:50:17;;;;;;;5.32;2.20;;;17.70;43.70;;;;;;5056221;28;20173;-84
2021/05/04 08:52:43;;;;;;;3.95;2.20;;;17.90;44.10;;;;;;5056493;28;20176;-83
2021/05/04 08:55:11;;;;;;;4.23;1.90;;;18.00;43.60;;;;;;5055952;28;20196;-84
2021/05/04 08:57:38;;;;;;;4.22;2.70;;;18.10;42.80;;;;;;5058209;28;20427;-83
2021/05/04 09:00:06;;;;;;;5.28;2.10;;;18.30;44.80;;;;;;5058154;28;20645;-83
2021/05/04 09:03:00;;;;;;;6.00;1.85;;;18.40;42.30;;;;;;5055873;28;20268;-84
2021/05/04 09:05:37;;;;;;;10.52;2.80;;;18.60;42.80;;;;;;5054882;28;20200;-86
2021/05/04 09:08:07;;;;;;;4.20;2.85;;;18.60;42.20;;;;;;5053856;28;20205;-87
2021/05/04 09:11:14;;;;;;;10.48;2.50;;;18.60;42.20;;;;;;5054377;28;20668;-88
2021/05/04 09:13:31;;;;;;;2.97;2.20;;;18.50;42.20;;;;;;5054893;28;20201;-87
2021/05/04 09:21:08;;;;;;;4.53;2.17;;;18.70;41.60;;;;;;5059719;28;20237;-88
2021/05/04 09:23:35;;;;;;;9.00;2.40;;;18.60;42.40;;;;;;5057932;28;20518;-87
2021/05/04 09:26:01;;;;;;;4.63;2.30;;;18.60;42.30;;;;;;5057915;28;20180;-88
2021/05/04 09:28:26;;;;;;;3.07;2.23;;;18.60;42.60;;;;;;5056718;28;20339;-89
2021/05/04 09:30:57;;;;;;;5.93;3.47;;;18.60;42.60;;;;;;5057080;28;20415;-87
2021/05/04 09:33:24;;;;;;;4.78;2.60;;;18.60;42.60;;;;;;5057581;28;20422;-88
2021/05/04 09:35:50;;;;;;;4.60;2.40;;;18.70;42.20;;;;;;5057699;28;20280;-86
2021/05/04 09:38:18;;;;;;;5.70;3.13;;;18.60;41.80;;;;;;5057195;28;20621;-89
2021/05/04 09:40:46;;;;;;;5.30;2.03;;;18.70;41.80;;;;;;5057100;28;20477;-88
2021/05/04 09:43:14;;;;;;;6.60;2.10;;;18.80;44.00;;;;;;5056933;28;20255;-89
2021/05/04 09:45:43;;;;;;;4.93;2.15;;;18.80;41.20;;;;;;5056453;28;20197;-88
2021/05/04 09:48:16;;;;;;;3.47;2.25;;;18.80;41.90;;;;;;5056102;28;20270;-91
2021/05/04 09:51:37;;;;;;;3.85;2.00;;;18.90;41.80;;;;;;5056104;28;20156;-88
2021/05/04 09:56:35;;;;;;;2.92;2.35;;;19.10;40.60;;;;;;5057637;28;20575;-89
2021/05/04 09:59:02;;;;;;;4.75;2.17;;;19.00;41.10;;;;;;5056972;28;20231;-88
2021/05/04 10:01:29;;;;;;;3.17;1.92;;;19.00;41.40;;;;;;5057452;28;20176;-88
2021/05/04 10:03:57;;;;;;;5.50;2.30;;;19.10;41.50;;;;;;5057626;28;20185;-88
2021/05/04 10:06:23;;;;;;;3.20;2.00;;;19.20;41.40;;;;;;5056085;28;20184;-87
2021/05/04 10:08:51;;;;;;;3.10;2.00;;;19.40;41.40;;;;;;5056428;28;20183;-87
2021/05/04 10:11:21;;;;;;;5.57;2.00;;;19.60;40.50;;;;;;5056062;28;20719;-86
2021/05/04 10:13:55;;;;;;;9.30;2.22;;;19.80;39.30;;;;;;5055289;28;20189;-87
2021/05/04 10:16:25;;;;;;;6.88;2.13;;;19.90;40.70;;;;;;5055690;28;20530;-87
2021/05/04 10:18:52;;;;;;;3.00;2.30;;;20.10;39.50;;;;;;5056042;28;20172;-87
2021/05/04 10:21:18;;;;;;;7.70;2.08;;;20.40;38.90;;;;;;5056486;28;20170;-88
2021/05/04 10:23:49;;;;;;;3.05;2.10;;;20.40;39.50;;;;;;5056341;28;20374;-89
2021/05/04 10:26:16;;;;;;;6.43;1.92;;;20.40;38.20;;;;;;5057212;28;20169;-89
2021/05/04 10:28:49;;;;;;;3.75;2.22;;;20.30;38.20;;;;;;5062375;28;20208;-89
2021/05/04 10:31:16;;;;;;;4.70;2.30;;;20.10;37.30;;;;;;5056841;28;20201;-90
2021/05/04 10:33:45;;;;;;;3.92;2.42;;;19.90;38.60;;;;;;5056257;28;20260;-91
2021/05/04 10:36:40;;;;;;;3.20;2.30;;;20.00;38.20;;;;;;5059607;28;20311;-91
2021/05/04 10:39:06;;;;;;;2.38;1.80;;;20.00;38.90;;;;;;5056022;28;20185;-89
2021/05/04 10:41:58;;;;;;;3.30;2.33;;;20.00;38.00;;;;;;5056285;28;20183;-90
2021/05/04 10:44:27;;;;;;;4.32;1.88;;;20.00;39.10;;;;;;5055175;28;21022;-90
2021/05/04 10:46:56;;;;;;;6.13;2.45;;;20.00;38.50;;;;;;5055363;28;20270;-89
2021/05/04 10:49:55;;;;;;;2.50;2.08;;;19.80;39.50;;;;;;5053911;28;20230;-87
2021/05/04 10:53:03;;;;;;;8.05;2.45;;;19.80;39.80;;;;;;5054789;28;20177;-87
2021/05/04 10:55:49;;;;;;;4.43;2.10;;;20.00;40.30;;;;;;5057515;28;20274;-87
2021/05/04 10:58:16;;;;;;;3.05;2.00;;;20.10;39.00;;;;;;5058135;28;20172;-86
2021/05/04 11:01:01;;;;;;;3.58;2.20;;;20.00;39.30;;;;;;5053590;28;20181;-87
2021/05/04 11:03:33;;;;;;;4.00;2.00;;;19.80;40.10;;;;;;5054361;28;20204;-86
2021/05/04 11:06:07;;;;;;;4.40;2.45;;;19.90;40.80;;;;;;5053799;28;20201;-86
2021/05/04 11:08:42;;;;;;;4.82;2.38;;;19.80;39.90;;;;;;5054530;28;20193;-87
2021/05/04 11:11:26;;;;;;;5.07;2.25;;;19.60;40.20;;;;;;5054367;28;20173;-87
2021/05/04 11:13:57;;;;;;;7.05;1.88;;;19.80;40.50;;;;;;5054529;28;20193;-86
2021/05/04 11:16:45;;;;;;;3.25;2.33;;;20.10;41.60;;;;;;5054210;28;20175;-86
2021/05/04 11:19:11;;;;;;;5.72;2.15;;;20.30;40.10;;;;;;5053166;28;20196;-87
2021/05/04 11:21:46;;;;;;;3.10;1.88;;;20.30;38.60;;;;;;5053611;28;20541;-87
2021/05/04 11:24:25;;;;;;;3.35;2.20;;;19.90;39.70;;;;;;5054331;28;20609;-87
2021/05/04 11:26:53;;;;;;;3.67;2.65;;;19.60;40.70;;;;;;5053543;28;20200;-87
2021/05/04 11:29:21;;;;;;;5.57;2.38;;;19.50;40.30;;;;;;5053827;28;20194;-87
2021/05/04 11:31:49;;;;;;;4.05;2.30;;;19.40;39.90;;;;;;5054243;28;20177;-86
2021/05/04 11:34:45;;;;;;;3.10;2.40;;;19.50;39.90;;;;;;5053222;28;20791;-86
2021/05/04 11:37:36;;;;;;;3.80;2.33;;;19.60;39.80;;;;;;5053155;28;20185;-86
2021/05/04 11:40:14;;;;;;;3.60;2.17;;;19.20;40.10;;;;;;5053768;28;20169;-86
2021/05/04 11:42:39;;;;;;;6.10;2.10;;;19.10;40.80;;;;;;5054334;28;20640;-86
2021/05/04 11:45:06;;;;;;;3.90;2.20;;;19.00;41.40;;;;;;5054358;28;20193;-86
2021/05/04 11:47:32;;;;;;;4.80;2.30;;;18.90;41.40;;;;;;5054230;28;20288;-87
2021/05/04 11:50:12;;;;;;;6.00;2.50;;;18.90;42.00;;;;;;5054039;28;20169;-86
2021/05/04 11:52:40;;;;;;;11.50;2.53;;;18.90;42.00;;;;;;5053857;28;20161;-86
2021/05/04 11:55:21;;;;;;;4.35;2.70;;;18.90;42.80;;;;;;5053950;28;20200;-86
2021/05/04 11:57:56;;;;;;;8.45;2.58;;;19.00;43.70;;;;;;5053832;28;20173;-86
2021/05/04 12:00:26;;;;;;;4.65;2.28;;;19.20;42.70;;;;;;5053606;28;20170;-86
2021/05/04 12:03:06;;;;;;;5.00;2.20;;;19.20;42.00;;;;;;5053636;28;20638;-86
2021/05/04 12:08:11;;;;;;;3.47;2.33;;;19.30;42.80;;;;;;5080802;28;20212;-86
2021/05/04 12:10:40;;;;;;;10.15;2.35;;;19.10;42.00;;;;;;5063902;28;20194;-86
2021/05/04 12:13:26;;;;;;;5.40;2.40;;;18.80;41.80;;;;;;5064224;28;20209;-86
2021/05/04 12:15:53;;;;;;;5.20;2.90;;;18.50;42.90;;;;;;5063391;28;20248;-86
2021/05/04 12:18:23;;;;;;;11.63;2.03;;;18.40;43.30;;;;;;5043669;28;20180;-84
2021/05/04 12:21:01;;;;;;;3.47;2.10;;;18.30;43.60;;;;;;5045025;28;20184;-87
2021/05/04 12:23:39;;;;;;;2.65;2.20;;;18.20;45.30;;;;;;5045135;28;20183;-87
2021/05/04 12:26:10;;;;;;;15.68;2.50;;;18.20;46.00;;;;;;5045574;28;20173;-85
2021/05/04 12:28:56;;;;;;;5.60;2.60;;;18.10;45.40;;;;;;5044683;28;20300;-84
2021/05/04 12:31:31;;;;;;;2.65;2.40;;;18.00;45.40;;;;;;5045351;28;20219;-86
2021/05/04 12:33:58;;;;;;;6.68;1.90;;;18.00;46.70;;;;;;5063447;28;20189;-85
2021/05/04 12:36:56;;;;;;;4.45;2.40;;;17.90;47.40;;;;;;5044887;28;20174;-87
2021/05/04 12:39:30;;;;;;;3.47;2.60;;;18.00;47.50;;;;;;5043702;28;20188;-86
2021/05/04 12:42:02;;;;;;;4.05;2.25;;;18.10;48.60;;;;;;5044219;28;20174;-87
2021/05/04 12:44:33;;;;;;;3.17;2.38;;;18.10;47.90;;;;;;5043613;28;20199;-85
2021/05/04 12:47:06;;;;;;;2.85;1.85;;;18.30;48.80;;;;;;5042659;28;20204;-85
2021/05/04 12:49:41;;;;;;;2.67;2.03;;;18.30;48.70;;;;;;5044130;28;20178;-85
2021/05/04 12:52:12;;;;;;;3.90;2.63;;;18.40;49.20;;;;;;5044878;28;20211;-88
2021/05/04 12:54:40;;;;;;;4.40;2.67;;;18.50;49.00;;;;;;5044644;28;20363;-86
2021/05/04 12:57:30;;;;;;;4.93;2.58;;;18.70;49.40;;;;;;5065672;28;20177;-85
2021/05/04 12:59:58;;;;;;;3.15;2.00;;;18.80;48.20;;;;;;5047081;28;20192;-86
2021/05/04 13:02:28;;;;;;;4.15;2.08;;;18.80;48.60;;;;;;5046585;28;20181;-86
2021/05/04 13:05:08;;;;;;;2.13;1.60;;;18.80;49.10;;;;;;5046710;28;20223;-86